Time;durP1;ratioP1;P1;durP2;ratioP2;P2;SDS_P1;SDS_P2;PMS_P1;PMS_P2;Temp;Humidity;BMP_temperature;BMP_pressure;BME280_temperature;BME280_humidity;BME280_pressure;Samples;Min_cycle;Max_cycle;Signal;HPM_P1;HPM_P2
2022/07/28 00:01:40;;;;;;;2.60;1.33;;;11.00;99.90;;;;;;4840347;29;20505;-64
2022/07/28 00:04:06;;;;;;;2.55;1.23;;;11.00;99.90;;;;;;4841879;29;20069;-64
2022/07/28 00:06:31;;;;;;;2.55;1.30;;;11.00;99.90;;;;;;4842337;29;20137;-64
2022/07/28 00:08:57;;;;;;;1.95;1.40;;;10.90;99.90;;;;;;4840177;29;20058;-64
2022/07/28 00:11:22;;;;;;;2.28;1.33;;;10.90;99.90;;;;;;4840940;29;20392;-64
2022/07/28 00:13:48;;;;;;;2.33;1.40;;;10.90;99.90;;;;;;4838945;29;20056;-64
2022/07/28 00:16:14;;;;;;;2.03;1.75;;;10.90;99.90;;;;;;4841453;29;20150;-64
2022/07/28 00:18:39;;;;;;;1.70;1.17;;;10.90;99.90;;;;;;4842360;29;20064;-64
2022/07/28 00:21:05;;;;;;;2.30;1.13;;;10.90;99.90;;;;;;4840610;29;20516;-64
2022/07/28 00:23:31;;;;;;;2.13;1.30;;;10.90;99.90;;;;;;4842456;29;20089;-64
2022/07/28 00:25:57;;;;;;;3.17;1.40;;;10.80;99.90;;;;;;4840745;29;20424;-64
2022/07/28 00:28:22;;;;;;;1.83;1.23;;;10.80;99.90;;;;;;4840643;29;20514;-64
2022/07/28 00:30:48;;;;;;;2.97;1.27;;;10.70;99.90;;;;;;4841983;29;20114;-64
2022/07/28 00:33:13;;;;;;;3.67;1.52;;;10.80;99.90;;;;;;4840793;29;20067;-64
2022/07/28 00:35:39;;;;;;;3.00;1.35;;;10.70;99.90;;;;;;4838752;29;20140;-64
2022/07/28 00:38:04;;;;;;;2.45;1.17;;;10.70;99.90;;;;;;4841037;29;20073;-64
2022/07/28 00:43:14;;;;;;;2.75;1.40;;;10.70;99.90;;;;;;4839620;29;20477;-64
2022/07/28 00:45:40;;;;;;;1.83;1.35;;;10.60;99.90;;;;;;4840840;29;20132;-65
2022/07/28 00:48:06;;;;;;;2.28;1.27;;;10.60;99.90;;;;;;4841404;29;20089;-64
2022/07/28 00:50:31;;;;;;;1.95;1.42;;;10.60;99.90;;;;;;4841971;29;20141;-64
2022/07/28 00:52:58;;;;;;;2.28;1.45;;;10.60;99.90;;;;;;4840424;29;20133;-64
2022/07/28 00:55:24;;;;;;;1.75;1.50;;;10.50;99.90;;;;;;4841064;29;20527;-64
2022/07/28 00:57:50;;;;;;;3.35;1.50;;;10.60;99.90;;;;;;4841580;29;20054;-64
2022/07/28 01:00:16;;;;;;;2.65;1.30;;;10.50;99.90;;;;;;4841457;29;20088;-64
2022/07/28 01:02:45;;;;;;;3.58;1.58;;;10.50;99.90;;;;;;4842670;29;20050;-64
2022/07/28 01:05:13;;;;;;;6.90;1.95;;;10.40;99.90;;;;;;4809575;29;20054;-64
2022/07/28 01:07:53;;;;;;;1.90;1.33;;;10.40;99.90;;;;;;4840777;29;20142;-64
2022/07/28 01:10:31;;;;;;;3.20;1.80;;;10.40;99.90;;;;;;4840841;29;20403;-65
2022/07/28 01:13:08;;;;;;;1.95;1.58;;;10.30;99.90;;;;;;4840498;29;20049;-64
2022/07/28 01:15:56;;;;;;;3.42;1.60;;;10.30;99.90;;;;;;4838370;29;20149;-64
2022/07/28 01:18:27;;;;;;;2.25;1.80;;;10.30;99.90;;;;;;4841907;29;20057;-64
2022/07/28 01:20:56;;;;;;;1.65;1.30;;;10.30;99.90;;;;;;4825226;29;20421;-65
2022/07/28 01:23:25;;;;;;;2.45;1.50;;;10.30;99.90;;;;;;4840922;29;20054;-64
2022/07/28 01:26:12;;;;;;;2.80;1.83;;;10.30;99.90;;;;;;4840831;29;20452;-64
2022/07/28 01:29:15;;;;;;;1.77;1.40;;;10.30;99.90;;;;;;4841026;29;20054;-64
2022/07/28 01:31:44;;;;;;;3.50;1.50;;;10.30;99.90;;;;;;4840417;29;20093;-64
2022/07/28 01:34:15;;;;;;;3.15;1.80;;;10.30;99.90;;;;;;4841371;29;20452;-64
2022/07/28 01:36:48;;;;;;;2.85;1.52;;;10.30;99.90;;;;;;4841230;29;20054;-65
2022/07/28 01:39:15;;;;;;;2.28;1.50;;;10.30;99.90;;;;;;4840773;29;20065;-64
2022/07/28 01:41:43;;;;;;;2.40;1.42;;;10.30;99.90;;;;;;4820831;29;20069;-64
2022/07/28 01:44:13;;;;;;;1.63;1.50;;;10.30;99.90;;;;;;4831470;29;20516;-64
2022/07/28 01:46:41;;;;;;;1.80;1.35;;;10.30;99.90;;;;;;4833334;29;20068;-64
2022/07/28 01:49:08;;;;;;;1.98;1.33;;;10.30;99.90;;;;;;4840574;29;20061;-64
2022/07/28 01:51:35;;;;;;;3.30;1.77;;;10.30;99.90;;;;;;4840886;29;20461;-65
2022/07/28 01:54:01;;;;;;;2.40;1.80;;;10.20;99.90;;;;;;4841772;29;20054;-64
2022/07/28 01:56:29;;;;;;;2.78;1.73;;;10.30;99.90;;;;;;4839081;29;20046;-64
2022/07/28 01:58:58;;;;;;;1.83;1.50;;;10.20;99.90;;;;;;4841135;29;20133;-64
2022/07/28 02:01:26;;;;;;;2.20;1.60;;;10.20;99.90;;;;;;4844555;29;20046;-64
2022/07/28 02:03:55;;;;;;;2.78;1.92;;;10.20;99.90;;;;;;4844955;29;20062;-64
2022/07/28 02:06:21;;;;;;;3.42;1.60;;;10.20;99.90;;;;;;4843297;29;20061;-64
2022/07/28 02:08:49;;;;;;;3.13;1.60;;;10.30;99.90;;;;;;4844946;29;20119;-64
2022/07/28 02:14:00;;;;;;;2.30;1.40;;;10.20;99.90;;;;;;4832990;29;20058;-64
2022/07/28 02:16:27;;;;;;;2.15;1.67;;;10.20;99.90;;;;;;4841397;29;20495;-64
2022/07/28 02:18:56;;;;;;;1.88;1.60;;;10.20;99.90;;;;;;4844612;29;20046;-65
2022/07/28 02:21:24;;;;;;;2.00;1.50;;;10.20;99.90;;;;;;4827655;29;20057;-64
2022/07/28 02:23:52;;;;;;;1.63;1.50;;;10.20;99.90;;;;;;4844583;29;20058;-64
2022/07/28 02:26:24;;;;;;;3.15;1.73;;;10.30;99.90;;;;;;4842927;29;20364;-65
2022/07/28 02:28:53;;;;;;;2.25;1.60;;;10.30;99.90;;;;;;4843542;29;20073;-64
2022/07/28 02:31:24;;;;;;;1.70;1.40;;;10.30;99.90;;;;;;4827799;29;20433;-64
2022/07/28 02:33:56;;;;;;;1.65;1.45;;;10.40;99.90;;;;;;4843675;29;20046;-64
2022/07/28 02:36:29;;;;;;;3.28;1.70;;;10.30;99.90;;;;;;4842742;29;20081;-64
2022/07/28 02:38:55;;;;;;;;;;;10.30;99.90;;;;;;4845183;29;20388;-65
2022/07/28 02:41:36;;;;;;;3.03;1.92;;;10.70;99.90;;;;;;4844180;29;19925;-64
2022/07/28 02:44:10;;;;;;;1.67;1.35;;;10.30;99.90;;;;;;4843775;29;20054;-64
2022/07/28 02:47:06;;;;;;;3.15;1.50;;;10.30;99.90;;;;;;4826002;29;20062;-64
2022/07/28 02:49:37;;;;;;;1.77;1.40;;;10.30;99.90;;;;;;4841938;29;20061;-64
2022/07/28 02:52:28;;;;;;;2.47;1.42;;;10.30;99.90;;;;;;4843448;29;20378;-65
2022/07/28 02:58:33;;;;;;;2.78;1.50;;;10.30;99.90;;;;;;4804390;29;20195;-64
2022/07/28 03:00:59;;;;;;;2.10;1.35;;;10.20;99.90;;;;;;4787084;29;20143;-64
2022/07/28 03:07:00;;;;;;;2.03;1.50;;;10.30;99.90;;;;;;4808836;29;20054;-64
2022/07/28 03:09:27;;;;;;;1.45;1.27;;;10.20;99.90;;;;;;4839204;29;20065;-64
2022/07/28 03:11:53;;;;;;;2.53;1.33;;;10.20;99.90;;;;;;4827227;29;20082;-63
2022/07/28 03:14:18;;;;;;;2.30;1.50;;;10.20;99.90;;;;;;4841115;29;20073;-64
2022/07/28 03:16:44;;;;;;;2.90;1.50;;;10.20;99.90;;;;;;4842280;29;20061;-64
2022/07/28 03:19:10;;;;;;;3.42;2.20;;;10.10;99.90;;;;;;4843674;29;20122;-64
2022/07/28 03:21:36;;;;;;;2.17;1.50;;;10.10;99.90;;;;;;4840326;29;20065;-64
2022/07/28 03:24:02;;;;;;;2.45;1.45;;;10.10;99.90;;;;;;4843870;29;20488;-64
2022/07/28 03:26:40;;;;;;;3.03;1.80;;;10.10;99.90;;;;;;4842086;29;20062;-64
2022/07/28 03:29:07;;;;;;;2.92;1.90;;;10.10;99.90;;;;;;4842839;29;20050;-65
2022/07/28 03:31:34;;;;;;;1.90;1.75;;;10.00;99.90;;;;;;4826604;29;20072;-64
2022/07/28 03:34:00;;;;;;;3.83;1.83;;;10.00;99.90;;;;;;4843190;29;20468;-64
2022/07/28 03:36:34;;;;;;;4.05;2.05;;;10.00;99.90;;;;;;4839138;29;20061;-65
2022/07/28 03:39:05;;;;;;;2.50;1.92;;;10.00;99.90;;;;;;4843328;29;20065;-65
2022/07/28 03:41:32;;;;;;;2.38;1.92;;;10.00;99.90;;;;;;4842202;29;20468;-64
2022/07/28 03:43:59;;;;;;;1.85;1.73;;;10.00;99.90;;;;;;4842283;29;20062;-64
2022/07/28 03:46:26;;;;;;;3.20;1.90;;;10.00;99.90;;;;;;4837758;29;20042;-65
2022/07/28 03:48:52;;;;;;;2.38;1.85;;;9.90;99.90;;;;;;4842352;29;20054;-64
2022/07/28 03:51:17;;;;;;;3.95;2.30;;;9.90;99.90;;;;;;4840486;29;20058;-64
2022/07/28 03:53:43;;;;;;;3.30;2.00;;;9.90;99.90;;;;;;4843362;29;20098;-64
2022/07/28 03:56:09;;;;;;;3.00;2.15;;;9.90;99.90;;;;;;4824992;29;20065;-64
2022/07/28 03:58:35;;;;;;;3.28;2.03;;;9.90;99.90;;;;;;4842987;29;20061;-64
2022/07/28 04:01:00;;;;;;;4.68;2.72;;;9.90;99.90;;;;;;4825422;29;20061;-64
2022/07/28 04:03:26;;;;;;;3.05;2.00;;;9.80;99.90;;;;;;4842654;29;20065;-64
2022/07/28 04:05:54;;;;;;;1.83;1.73;;;9.80;99.90;;;;;;4841761;29;20045;-64
2022/07/28 04:08:20;;;;;;;3.30;2.20;;;9.80;99.90;;;;;;4842982;29;20061;-64
2022/07/28 04:10:45;;;;;;;2.75;2.20;;;9.80;99.90;;;;;;4837955;29;20062;-64
2022/07/28 04:13:11;;;;;;;3.50;2.20;;;9.80;99.90;;;;;;4824701;29;20061;-65
2022/07/28 04:15:37;;;;;;;3.03;2.30;;;9.80;99.90;;;;;;4828990;29;20045;-65
2022/07/28 04:18:03;;;;;;;4.25;1.83;;;9.90;99.90;;;;;;4842616;29;20081;-64
2022/07/28 04:20:29;;;;;;;3.17;1.80;;;9.90;99.90;;;;;;4843054;29;20362;-64
2022/07/28 04:22:55;;;;;;;2.47;1.88;;;9.90;99.90;;;;;;4842042;29;20050;-64
2022/07/28 04:25:24;;;;;;;3.70;2.33;;;9.90;99.90;;;;;;4840527;29;20060;-64
2022/07/28 04:27:50;;;;;;;2.78;1.95;;;9.90;99.90;;;;;;4842450;29;20060;-64
2022/07/28 04:30:19;;;;;;;2.58;1.75;;;9.90;99.90;;;;;;4842375;29;20053;-64
2022/07/28 04:32:47;;;;;;;2.00;1.75;;;9.90;99.90;;;;;;4840901;29;20053;-64
2022/07/28 04:35:15;;;;;;;3.85;1.90;;;10.00;99.90;;;;;;4842482;29;20068;-64
2022/07/28 04:37:41;;;;;;;2.72;1.80;;;10.10;99.90;;;;;;4841348;29;20455;-64
2022/07/28 04:40:08;;;;;;;2.05;1.83;;;10.10;99.90;;;;;;4840332;29;20515;-64
2022/07/28 04:42:35;;;;;;;3.22;2.17;;;10.10;99.90;;;;;;4842264;29;20089;-64
2022/07/28 04:45:01;;;;;;;3.03;1.80;;;10.10;99.90;;;;;;4842282;29;20053;-64
2022/07/28 04:47:28;;;;;;;3.03;1.60;;;10.20;99.90;;;;;;4838979;29;20056;-65
2022/07/28 04:49:54;;;;;;;3.30;2.35;;;10.20;99.90;;;;;;4842525;29;20070;-64
2022/07/28 04:52:20;;;;;;;6.72;2.00;;;10.20;99.90;;;;;;4841379;29;20607;-64
2022/07/28 04:54:46;;;;;;;3.55;1.92;;;10.20;99.90;;;;;;4841011;29;20054;-65
2022/07/28 04:57:12;;;;;;;3.40;2.55;;;10.30;99.90;;;;;;4823809;29;20085;-64
2022/07/28 04:59:38;;;;;;;2.83;2.05;;;10.30;99.90;;;;;;4836872;29;20097;-65
2022/07/28 05:02:04;;;;;;;2.08;1.80;;;10.30;99.90;;;;;;4827450;29;20058;-64
2022/07/28 05:04:29;;;;;;;3.05;1.92;;;10.30;99.90;;;;;;4823693;29;20085;-65
2022/07/28 05:06:55;;;;;;;11.13;2.85;;;10.40;99.90;;;;;;4851824;29;20070;-64
2022/07/28 05:09:21;;;;;;;3.60;2.08;;;10.50;99.90;;;;;;4839996;29;20050;-64
2022/07/28 05:11:46;;;;;;;2.30;1.77;;;10.50;99.90;;;;;;4825536;29;20098;-64
2022/07/28 05:14:12;;;;;;;2.80;2.15;;;10.60;99.90;;;;;;4840398;29;20499;-65
2022/07/28 05:16:37;;;;;;;3.08;2.05;;;10.80;99.90;;;;;;4837306;29;20050;-64
2022/07/28 05:19:03;;;;;;;2.58;2.10;;;10.80;99.90;;;;;;4837943;29;20134;-65
2022/07/28 05:21:28;;;;;;;3.42;2.13;;;11.00;99.90;;;;;;4840180;29;20054;-65
2022/07/28 05:23:54;;;;;;;2.85;1.95;;;11.00;99.90;;;;;;4839167;29;20113;-64
2022/07/28 05:26:20;;;;;;;3.30;2.00;;;11.10;99.90;;;;;;4840607;29;20093;-65
2022/07/28 05:28:45;;;;;;;4.43;1.98;;;11.10;99.90;;;;;;4837173;29;20058;-64
2022/07/28 05:31:11;;;;;;;3.75;1.80;;;11.20;99.90;;;;;;4835517;29;20177;-65
2022/07/28 05:34:28;;;;;;;4.63;2.00;;;11.30;99.90;;;;;;4835782;29;20214;-63
2022/07/28 05:45:56;;;;;;;3.40;1.60;;;12.50;99.90;;;;;;4836152;29;20032;-64
2022/07/28 05:48:22;;;;;;;3.38;1.60;;;14.90;99.90;;;;;;4838457;29;20054;-64
2022/07/28 05:50:48;;;;;;;2.65;1.23;;;16.40;99.90;;;;;;4842408;29;20064;-65
2022/07/28 05:53:14;;;;;;;2.13;1.48;;;17.50;99.90;;;;;;4844902;29;20053;-65
2022/07/28 05:55:40;;;;;;;2.60;1.30;;;18.40;99.90;;;;;;4843037;29;20062;-65
2022/07/28 05:58:05;;;;;;;3.10;1.60;;;19.10;99.90;;;;;;4844191;29;20061;-65
2022/07/28 06:00:34;;;;;;;3.20;1.30;;;19.90;99.90;;;;;;4844731;29;20137;-65
2022/07/28 06:03:02;;;;;;;4.85;1.20;;;20.00;99.90;;;;;;4844653;29;20525;-65
2022/07/28 06:05:29;;;;;;;2.13;1.20;;;19.30;99.90;;;;;;4843654;29;20125;-65
2022/07/28 06:07:56;;;;;;;6.40;1.70;;;18.70;99.90;;;;;;4839697;29;20058;-65
2022/07/28 06:10:24;;;;;;;1.92;0.90;;;18.90;99.90;;;;;;4844259;29;20452;-64
2022/07/28 06:12:54;;;;;;;4.75;1.35;;;19.60;99.90;;;;;;4843757;29;20060;-65
2022/07/28 06:15:25;;;;;;;4.40;1.15;;;20.10;99.90;;;;;;4812374;29;20052;-66
2022/07/28 06:17:54;;;;;;;3.95;1.00;;;20.80;99.90;;;;;;4827601;29;20054;-65
2022/07/28 06:20:21;;;;;;;2.13;0.98;;;21.00;99.90;;;;;;4844338;29;20042;-64
2022/07/28 06:22:52;;;;;;;3.05;1.10;;;21.10;99.90;;;;;;4842592;29;20065;-66
2022/07/28 06:25:20;;;;;;;2.13;1.10;;;21.10;99.90;;;;;;4844804;29;20411;-66
2022/07/28 06:27:47;;;;;;;2.42;0.95;;;21.40;99.90;;;;;;4842952;29;20133;-65
2022/07/28 06:30:13;;;;;;;2.50;1.10;;;21.60;99.90;;;;;;4843152;29;20102;-65
2022/07/28 06:32:39;;;;;;;2.22;1.10;;;21.80;99.90;;;;;;4827106;29;20049;-65
2022/07/28 06:35:05;;;;;;;3.33;1.00;;;21.10;99.90;;;;;;4844040;29;20054;-66
2022/07/28 06:37:31;;;;;;;3.47;1.23;;;20.30;99.90;;;;;;4841596;29;20056;-65
2022/07/28 06:39:57;;;;;;;3.42;0.93;;;19.70;99.90;;;;;;4843897;29;20060;-65
2022/07/28 06:42:22;;;;;;;2.08;0.90;;;19.20;99.90;;;;;;4844070;29;20057;-65
2022/07/28 06:44:50;;;;;;;6.72;1.20;;;18.80;99.90;;;;;;4844229;29;20064;-66
2022/07/28 06:47:16;;;;;;;2.40;1.13;;;18.60;99.90;;;;;;4843180;29;20053;-65
2022/07/28 06:49:41;;;;;;;2.85;0.77;;;18.40;99.90;;;;;;4842188;29;20125;-66
2022/07/28 06:52:07;;;;;;;4.10;0.90;;;18.20;99.90;;;;;;4843790;29;20050;-65
2022/07/28 06:54:32;;;;;;;1.55;0.75;;;18.00;99.90;;;;;;4843929;29;20145;-65
2022/07/28 06:56:58;;;;;;;2.33;0.77;;;17.90;99.90;;;;;;4843335;29;20061;-65
2022/07/28 06:59:24;;;;;;;1.58;0.80;;;17.90;99.90;;;;;;4843986;29;20054;-65
2022/07/28 07:01:50;;;;;;;5.55;1.10;;;17.90;99.90;;;;;;4843768;29;20062;-65
2022/07/28 07:04:15;;;;;;;2.97;0.80;;;17.90;99.90;;;;;;4842581;29;20129;-65
2022/07/28 07:06:42;;;;;;;2.03;0.80;;;17.90;99.90;;;;;;4843621;29;20199;-66
2022/07/28 07:09:07;;;;;;;2.75;1.00;;;17.90;99.90;;;;;;4842925;29;20085;-65
2022/07/28 07:11:33;;;;;;;3.35;1.00;;;17.90;99.90;;;;;;4843786;29;20433;-65
2022/07/28 07:13:59;;;;;;;2.10;0.80;;;17.80;99.90;;;;;;4842431;29;20050;-65
2022/07/28 07:16:24;;;;;;;2.30;0.82;;;17.80;99.90;;;;;;4841924;29;20076;-66
2022/07/28 07:18:51;;;;;;;2.78;1.00;;;17.80;99.90;;;;;;4841453;29;20072;-65
2022/07/28 07:21:18;;;;;;;4.50;0.80;;;17.80;99.90;;;;;;4842761;29;20495;-65
2022/07/28 07:23:43;;;;;;;8.55;1.25;;;17.60;99.90;;;;;;4843337;29;20050;-65
2022/07/28 07:26:09;;;;;;;2.88;0.95;;;17.70;99.90;;;;;;4841921;29;20053;-65
2022/07/28 07:28:34;;;;;;;5.72;1.00;;;17.80;99.90;;;;;;4842495;29;20128;-65
2022/07/28 07:31:00;;;;;;;5.75;1.40;;;17.90;99.90;;;;;;4843032;29;20073;-65
2022/07/28 07:33:26;;;;;;;1.90;0.80;;;18.00;99.90;;;;;;4842901;29;20065;-65
2022/07/28 07:35:51;;;;;;;3.13;0.60;;;18.00;99.90;;;;;;4856712;29;20053;-65
2022/07/28 07:38:17;;;;;;;2.25;0.90;;;18.10;99.90;;;;;;4843075;29;20054;-65
2022/07/28 07:40:43;;;;;;;2.00;0.95;;;18.10;99.90;;;;;;4843122;29;20054;-65
2022/07/28 07:43:08;;;;;;;2.30;0.82;;;18.20;99.90;;;;;;4841909;29;20057;-65
2022/07/28 07:45:34;;;;;;;3.28;1.00;;;18.30;99.90;;;;;;4841379;29;20174;-64
2022/07/28 07:48:01;;;;;;;3.53;0.82;;;18.40;99.90;;;;;;4843097;29;20049;-65
2022/07/28 07:50:26;;;;;;;2.30;0.90;;;18.40;99.90;;;;;;4841745;29;20066;-64
2022/07/28 07:52:52;;;;;;;1.52;0.75;;;18.50;99.90;;;;;;4840303;29;20415;-65
2022/07/28 07:55:17;;;;;;;1.15;0.60;;;18.50;99.90;;;;;;4841477;29;20045;-65
2022/07/28 07:57:43;;;;;;;1.80;0.85;;;18.70;99.90;;;;;;4839273;29;20140;-65
2022/07/28 08:00:09;;;;;;;1.95;0.90;;;18.90;99.90;;;;;;4842775;29;20062;-66
2022/07/28 08:02:39;;;;;;;1.55;0.55;;;19.00;99.90;;;;;;4841229;29;20122;-66
2022/07/28 08:05:05;;;;;;;1.92;0.80;;;19.20;99.90;;;;;;4841036;29;20046;-65
2022/07/28 08:07:31;;;;;;;1.17;0.80;;;19.20;99.90;;;;;;4840810;29;20527;-66
2022/07/28 08:09:57;;;;;;;2.00;0.90;;;19.40;99.90;;;;;;4832937;29;20046;-65
2022/07/28 08:12:22;;;;;;;2.60;0.85;;;19.50;99.90;;;;;;4825695;29;20061;-65
2022/07/28 08:14:48;;;;;;;3.75;0.73;;;19.50;99.90;;;;;;4839301;29;20405;-64
2022/07/28 08:17:14;;;;;;;1.63;0.70;;;19.50;99.50;;;;;;4841009;29;20055;-64
2022/07/28 08:19:39;;;;;;;2.53;0.82;;;19.40;99.10;;;;;;4824924;29;20050;-65
2022/07/28 08:22:05;;;;;;;2.03;0.90;;;19.40;99.50;;;;;;4841363;29;20065;-64
2022/07/28 08:24:30;;;;;;;1.83;0.70;;;19.30;98.20;;;;;;4840650;29;20134;-64
2022/07/28 08:26:56;;;;;;;2.83;0.77;;;19.30;98.50;;;;;;4842421;29;20117;-65
2022/07/28 08:29:21;;;;;;;1.85;0.70;;;19.40;97.10;;;;;;4841146;29;20069;-65
2022/07/28 08:31:47;;;;;;;1.10;0.68;;;19.60;95.70;;;;;;4841005;29;20500;-65
2022/07/28 08:34:13;;;;;;;2.15;0.80;;;19.80;93.80;;;;;;4842426;29;20065;-64
2022/07/28 08:36:38;;;;;;;2.75;0.90;;;19.90;90.60;;;;;;4841437;29;20049;-66
2022/07/28 08:39:04;;;;;;;5.35;0.90;;;19.80;89.30;;;;;;4839335;29;20058;-64
2022/07/28 08:41:44;;;;;;;1.85;0.65;;;20.00;87.20;;;;;;4840076;29;20170;-65
2022/07/28 08:44:14;;;;;;;3.15;0.80;;;20.10;82.40;;;;;;4826423;29;20464;-65
2022/07/28 08:46:42;;;;;;;5.00;1.00;;;20.00;81.20;;;;;;4841694;29;20070;-64
2022/07/28 08:49:08;;;;;;;2.20;0.75;;;19.80;80.70;;;;;;4840482;29;20492;-65
2022/07/28 08:51:36;;;;;;;1.15;0.60;;;19.60;84.00;;;;;;4854278;29;20470;-66
2022/07/28 08:54:03;;;;;;;0.80;0.60;;;19.50;85.10;;;;;;4839721;29;20046;-65
2022/07/28 08:56:30;;;;;;;2.70;1.15;;;19.40;84.50;;;;;;4834831;29;20056;-64
2022/07/28 08:58:56;;;;;;;2.03;0.85;;;19.30;85.50;;;;;;4838199;29;20499;-64
2022/07/28 09:01:22;;;;;;;3.58;0.70;;;19.20;86.30;;;;;;4841864;29;20062;-65
2022/07/28 09:03:49;;;;;;;1.83;0.70;;;19.20;85.40;;;;;;4840411;29;20137;-67
2022/07/28 09:06:16;;;;;;;1.60;0.77;;;19.10;84.30;;;;;;4855136;29;20083;-66
2022/07/28 09:08:42;;;;;;;1.67;0.73;;;18.90;85.70;;;;;;4842028;29;20129;-65
2022/07/28 09:11:07;;;;;;;1.67;0.77;;;18.90;88.10;;;;;;4844875;29;20129;-65
2022/07/28 09:13:34;;;;;;;3.50;0.88;;;19.00;90.20;;;;;;4846127;29;20415;-66
2022/07/28 09:16:00;;;;;;;3.67;0.93;;;18.90;90.40;;;;;;4844467;29;20083;-66
2022/07/28 09:18:26;;;;;;;2.08;0.70;;;18.90;91.40;;;;;;4844747;29;20464;-65
2022/07/28 09:20:52;;;;;;;1.98;0.90;;;19.00;92.20;;;;;;4843517;29;20058;-66
2022/07/28 09:23:17;;;;;;;4.40;1.00;;;19.10;93.00;;;;;;4845447;29;20054;-65
2022/07/28 09:25:43;;;;;;;3.72;1.40;;;19.20;96.80;;;;;;4845644;29;20061;-65
2022/07/28 09:28:14;;;;;;;3.85;1.02;;;19.00;99.90;;;;;;4845637;29;20069;-65
2022/07/28 09:30:42;;;;;;;1.77;0.90;;;19.00;99.90;;;;;;4845262;29;20097;-66
2022/07/28 09:33:23;;;;;;;2.33;1.00;;;18.90;99.90;;;;;;4845149;29;20050;-64
2022/07/28 09:35:57;;;;;;;1.63;1.00;;;18.90;99.90;;;;;;4841571;29;20065;-65
2022/07/28 09:38:25;;;;;;;2.25;0.90;;;19.00;99.90;;;;;;4845207;29;20066;-64
2022/07/28 09:41:07;;;;;;;3.88;0.90;;;19.20;99.90;;;;;;4844370;29;20054;-64
2022/07/28 09:43:44;;;;;;;4.05;1.00;;;19.30;99.90;;;;;;4845111;29;20403;-66
2022/07/28 09:46:11;;;;;;;8.95;1.23;;;19.40;99.90;;;;;;4845085;29;20526;-64
2022/07/28 09:48:48;;;;;;;3.90;1.13;;;19.40;99.90;;;;;;4845496;29;20440;-64
2022/07/28 09:51:16;;;;;;;4.95;1.10;;;19.50;99.90;;;;;;4844050;29;20094;-64
2022/07/28 09:53:42;;;;;;;2.40;1.00;;;19.70;99.90;;;;;;4825188;29;20137;-64
2022/07/28 09:56:09;;;;;;;2.17;0.70;;;20.10;99.90;;;;;;4841004;29;20050;-64
2022/07/28 09:58:35;;;;;;;2.75;1.00;;;20.40;99.90;;;;;;4844854;29;20085;-64
2022/07/28 10:01:10;;;;;;;1.67;0.90;;;20.30;99.70;;;;;;4835964;29;20137;-64
2022/07/28 10:03:38;;;;;;;4.45;1.63;;;20.20;99.70;;;;;;4819812;29;20198;-64
2022/07/28 10:06:07;;;;;;;2.55;0.80;;;20.00;99.90;;;;;;4812054;29;20457;-65
2022/07/28 10:08:41;;;;;;;3.40;1.13;;;20.00;99.90;;;;;;4824711;29;20527;-64
2022/07/28 10:11:07;;;;;;;3.42;0.90;;;20.20;99.90;;;;;;4810256;29;20608;-65
2022/07/28 10:13:34;;;;;;;1.90;0.80;;;20.50;99.90;;;;;;4816953;29;20066;-65
2022/07/28 10:16:11;;;;;;;2.03;0.80;;;20.60;97.10;;;;;;4791874;29;20055;-65
2022/07/28 10:18:40;;;;;;;0.95;0.60;;;20.60;94.00;;;;;;4797299;29;20066;-65
2022/07/28 10:21:12;;;;;;;4.47;1.13;;;20.80;95.80;;;;;;4824923;29;20054;-65
2022/07/28 10:23:41;;;;;;;0.93;0.65;;;20.90;91.20;;;;;;4809349;29;20055;-65
2022/07/28 10:26:09;;;;;;;3.05;1.00;;;20.90;90.10;;;;;;4826166;29;20054;-65
2022/07/28 10:28:37;;;;;;;2.10;0.82;;;20.90;84.70;;;;;;4795906;29;20137;-64
2022/07/28 10:31:08;;;;;;;2.22;0.82;;;20.70;80.10;;;;;;4808799;29;20059;-65
2022/07/28 10:33:37;;;;;;;1.35;0.80;;;20.70;82.50;;;;;;4823914;29;20130;-65
2022/07/28 10:36:04;;;;;;;2.40;0.90;;;20.80;83.20;;;;;;4809576;29;20134;-64
2022/07/28 10:38:36;;;;;;;1.88;0.82;;;21.10;83.00;;;;;;4824934;29;20054;-64
2022/07/28 10:41:05;;;;;;;1.65;1.13;;;21.10;80.10;;;;;;4794106;29;20133;-64
2022/07/28 10:43:31;;;;;;;2.28;0.95;;;21.20;78.50;;;;;;4825014;29;20051;-65
2022/07/28 10:46:02;;;;;;;1.42;0.80;;;21.30;76.90;;;;;;4843290;29;20072;-64
2022/07/28 10:48:28;;;;;;;1.70;0.85;;;21.20;72.70;;;;;;4828178;29;20069;-64
2022/07/28 10:50:56;;;;;;;2.55;0.70;;;21.10;74.40;;;;;;4843439;29;20054;-65
2022/07/28 10:53:47;;;;;;;2.70;0.98;;;21.10;73.70;;;;;;4826492;29;20054;-65
2022/07/28 10:56:20;;;;;;;1.38;0.70;;;21.20;70.50;;;;;;4829612;29;20049;-65
2022/07/28 10:59:05;;;;;;;1.92;0.90;;;21.30;71.50;;;;;;4839644;29;20130;-65
2022/07/28 11:01:39;;;;;;;1.65;0.93;;;21.40;70.50;;;;;;4843097;29;20061;-65
2022/07/28 11:04:06;;;;;;;1.92;0.63;;;21.40;70.80;;;;;;4842388;29;20061;-65
2022/07/28 11:06:38;;;;;;;1.73;0.80;;;21.30;71.60;;;;;;4842184;29;20491;-66
2022/07/28 11:09:16;;;;;;;2.28;0.75;;;21.40;73.20;;;;;;4842476;29;20500;-66
2022/07/28 11:11:49;;;;;;;2.92;0.68;;;21.60;68.90;;;;;;4843414;29;20065;-65
2022/07/28 11:14:23;;;;;;;0.82;0.60;;;21.70;70.90;;;;;;4843730;29;20058;-65
2022/07/28 11:17:12;;;;;;;1.38;0.80;;;21.70;70.10;;;;;;4842291;29;20086;-66
2022/07/28 11:19:43;;;;;;;3.97;1.00;;;21.60;68.30;;;;;;4844242;29;20054;-66
2022/07/28 11:22:17;;;;;;;2.45;0.80;;;21.40;70.70;;;;;;4842589;29;20069;-65
2022/07/28 11:27:39;;;;;;;2.40;0.63;;;21.30;67.10;;;;;;4843612;29;20053;-65
2022/07/28 11:34:02;;;;;;;4.43;1.00;;;20.80;71.20;;;;;;4842027;29;20073;-65
2022/07/28 11:37:18;;;;;;;1.50;0.80;;;20.70;74.60;;;;;;4841793;29;20053;-65
2022/07/28 11:39:43;;;;;;;1.17;0.77;;;20.80;69.10;;;;;;4841946;29;20058;-65
2022/07/28 11:49:20;;;;;;;3.08;1.20;;;21.20;73.20;;;;;;4842024;29;20050;-64
2022/07/28 11:52:24;;;;;;;1.63;0.70;;;21.70;73.20;;;;;;4842406;29;20049;-65
2022/07/28 11:54:57;;;;;;;2.80;0.80;;;21.80;67.80;;;;;;4826696;29;20054;-65
2022/07/28 11:57:42;;;;;;;3.13;0.75;;;21.60;69.00;;;;;;4826306;29;20042;-64
2022/07/28 12:00:18;;;;;;;1.60;0.88;;;21.50;70.00;;;;;;4823298;29;20043;-64
2022/07/28 12:02:44;;;;;;;4.03;1.08;;;21.10;68.60;;;;;;4823045;29;20063;-67
2022/07/28 12:05:19;;;;;;;4.93;1.27;;;20.90;69.60;;;;;;4823375;29;20125;-66
2022/07/28 12:07:52;;;;;;;6.68;2.00;;;20.80;70.60;;;;;;4822975;29;20038;-64
2022/07/28 12:10:30;;;;;;;2.97;0.80;;;20.80;70.80;;;;;;4824640;29;20046;-64
2022/07/28 12:13:03;;;;;;;2.17;0.98;;;20.60;69.00;;;;;;4827679;29;20114;-65
2022/07/28 12:15:28;;;;;;;2.53;1.00;;;20.50;70.60;;;;;;4841196;29;20120;-64
2022/07/28 12:17:55;;;;;;;3.03;0.60;;;20.30;70.90;;;;;;4841091;29;20056;-65
2022/07/28 12:20:21;;;;;;;4.05;0.85;;;20.40;71.60;;;;;;4842531;29;20089;-64
2022/07/28 12:23:06;;;;;;;1.63;0.80;;;20.40;70.10;;;;;;4840964;29;20053;-64
2022/07/28 12:25:43;;;;;;;2.88;0.88;;;20.40;69.20;;;;;;4841586;29;20099;-65
2022/07/28 12:28:17;;;;;;;1.92;0.70;;;20.30;66.20;;;;;;4840966;29;20433;-65
2022/07/28 12:30:44;;;;;;;22.25;2.03;;;20.40;66.80;;;;;;4841782;29;20446;-64
2022/07/28 12:33:22;;;;;;;1.63;0.73;;;20.60;68.30;;;;;;4855188;29;20050;-65
2022/07/28 12:36:01;;;;;;;2.22;0.70;;;20.90;67.30;;;;;;4840541;29;20077;-66
2022/07/28 12:38:30;;;;;;;2.25;0.68;;;21.20;66.00;;;;;;4841314;29;20508;-63
2022/07/28 12:40:56;;;;;;;2.30;0.90;;;21.10;65.10;;;;;;4840905;29;20050;-65
2022/07/28 12:43:33;;;;;;;1.92;0.80;;;21.20;65.20;;;;;;4841876;29;20476;-64
2022/07/28 12:45:59;;;;;;;1.75;0.68;;;21.40;65.00;;;;;;4842243;29;20117;-65
2022/07/28 12:48:25;;;;;;;1.08;0.68;;;21.50;65.00;;;;;;4841935;29;20436;-65
2022/07/28 12:50:51;;;;;;;3.45;0.98;;;21.50;64.10;;;;;;4840336;29;20058;-65
2022/07/28 12:53:21;;;;;;;1.15;0.80;;;21.50;65.40;;;;;;4842311;29;20053;-64
2022/07/28 12:55:47;;;;;;;1.50;0.73;;;21.50;65.00;;;;;;4840846;29;20054;-65
2022/07/28 12:58:27;;;;;;;1.50;0.80;;;21.40;65.00;;;;;;4840875;29;20160;-64
2022/07/28 13:00:54;;;;;;;2.40;0.93;;;21.50;65.00;;;;;;4842005;29;20153;-64
2022/07/28 13:03:25;;;;;;;3.00;0.90;;;21.50;64.50;;;;;;4840891;29;20093;-64
2022/07/28 13:06:01;;;;;;;2.47;0.95;;;21.60;64.20;;;;;;4841371;29;20492;-65
2022/07/28 13:08:27;;;;;;;2.20;0.95;;;21.80;63.90;;;;;;4841793;29;20117;-63
2022/07/28 13:10:53;;;;;;;3.70;0.90;;;21.90;63.40;;;;;;4841743;29;20411;-65
2022/07/28 13:13:19;;;;;;;0.70;0.57;;;22.10;62.70;;;;;;4841357;29;20053;-64
2022/07/28 13:16:19;;;;;;;1.48;0.60;;;22.00;62.20;;;;;;4841868;29;20058;-64
2022/07/28 13:19:09;;;;;;;1.40;0.80;;;22.20;61.60;;;;;;4835791;29;20739;-64
2022/07/28 13:21:42;;;;;;;0.65;0.55;;;21.90;61.20;;;;;;4837972;29;20046;-64
2022/07/28 13:24:19;;;;;;;2.63;0.70;;;21.90;61.50;;;;;;4824210;29;20129;-64
2022/07/28 13:26:45;;;;;;;2.63;0.68;;;21.90;61.30;;;;;;4825703;29;20106;-65
2022/07/28 13:29:11;;;;;;;1.15;0.60;;;21.90;61.50;;;;;;4840586;29;20054;-64
2022/07/28 13:31:41;;;;;;;1.42;0.80;;;21.80;61.20;;;;;;4840353;29;20497;-64
2022/07/28 13:34:09;;;;;;;1.58;0.95;;;21.80;62.10;;;;;;4825092;29;20086;-65